»·PEaware :: N650CL KEWR-KJFK

N650CL :: KEWR-KJFK

FLIGHT INFORMATION

Flight Status: Arrived
Operator: Privately registered:
United States
More flights under this callsign
Pilot: Saso K. (7898)
Aircraft: CANADAIR CL-600 CHALLENGER
(CL60)
More flights by this aircraft type
Origin: KEWR Newark Intl
United States
Destination: KJFK Kennedy Intl
United States
More flights between these airports :: More routes between these airports
Route: DPK
File this flight plan on PilotEdge
Remarks:
Altitude:
(Current/Filed)
3,500ft
Speed:
(Current/Filed)
250kts
Departed: 14-Nov-22 07:02 AM
Arrived: 14-Nov-22 08:05 AM
Distance/Time
Traveled:
17nm/1:03
Distance/Time
To Go:
Arrived

Flight Plot

Page will automatically refresh every two minutes.

Flight plan parsing failed; only flown route is shown


Map Options




Map Legend


Flown Route
Filed Route
Departure Airport
Arrival Airport
Navaid (VOR, NDB)
Fix

Horizontal Profiles

Position Reports

Time Latitude Longitude Heading Altitude Ground
Speed
14-Nov-22 06:52 40.700841 -74.164909 200 14ft 0kts
14-Nov-22 06:53 40.697599 -74.167008 206 14ft 22kts
14-Nov-22 06:54 40.696250 -74.167860 205 14ft 0kts
14-Nov-22 06:55 40.696221 -74.167878 205 14ft 3kts
14-Nov-22 06:56 40.691864 -74.170663 205 14ft 25kts
14-Nov-22 06:57 40.685709 -74.174529 206 14ft 0kts
14-Nov-22 06:58 40.683445 -74.175975 203 14ft 0kts
14-Nov-22 06:59 40.683445 -74.175975 203 14ft 0kts
14-Nov-22 07:00 40.682207 -74.176431 126 14ft 3kts
14-Nov-22 07:01 40.682235 -74.175136 24 14ft 12kts
14-Nov-22 07:02 40.716409 -74.143115 45 2253ft 207kts
14-Nov-22 07:03 40.755888 -74.151971 279 4771ft 194kts
14-Nov-22 07:03 40.760626 -74.224145 277 6889ft 270kts
14-Nov-22 07:04 40.786892 -74.308048 322 8322ft 260kts
14-Nov-22 07:06 40.873657 -74.299406 14 9365ft 289kts
14-Nov-22 07:07 40.959079 -74.252352 18 10616ft 401kts
14-Nov-22 07:08 41.063761 -74.190831 18 10661ft 410kts
14-Nov-22 07:08 41.147336 -74.131609 41 11373ft 424kts
14-Nov-22 07:09 41.193363 -73.978721 71 12911ft 455kts
14-Nov-22 07:10 41.228895 -73.816321 71 13008ft 454kts
14-Nov-22 07:12 41.268884 -73.626988 77 13008ft 456kts
14-Nov-22 07:13 41.260587 -73.459855 111 12996ft 454kts
14-Nov-22 07:13 41.224075 -73.335242 114 13032ft 389kts
14-Nov-22 07:14 41.187904 -73.214244 114 12724ft 321kts
14-Nov-22 07:15 41.155059 -73.103341 105 12666ft 324kts
14-Nov-22 07:16 41.195755 -73.016528 7 12695ft 284kts
14-Nov-22 07:17 41.271126 -72.993544 335 12666ft 257kts
14-Nov-22 07:18 41.281916 -73.060736 223 12661ft 248kts
14-Nov-22 07:19 41.216035 -73.098896 211 12670ft 260kts
14-Nov-22 07:20 41.147715 -73.132284 222 12662ft 251kts
14-Nov-22 07:21 41.121749 -73.207944 278 12665ft 230kts
14-Nov-22 07:22 41.164340 -73.269622 337 12664ft 261kts
14-Nov-22 07:23 41.240225 -73.250132 7 12670ft 287kts
14-Nov-22 07:24 41.316546 -73.219421 7 12659ft 287kts
14-Nov-22 07:25 41.384910 -73.166132 60 12638ft 318kts
14-Nov-22 07:26 41.358244 -73.066457 163 12654ft 297kts
14-Nov-22 07:27 41.284674 -73.075188 205 12671ft 263kts
14-Nov-22 07:28 41.214055 -73.102936 206 12666ft 264kts
14-Nov-22 07:29 41.145419 -73.134593 224 12667ft 248kts
14-Nov-22 07:30 41.122533 -73.211173 280 12671ft 230kts
14-Nov-22 07:31 41.168130 -73.269872 341 12664ft 262kts
14-Nov-22 07:32 41.244118 -73.264336 347 11914ft 275kts
14-Nov-22 07:33 41.311189 -73.230011 72 10667ft 303kts
14-Nov-22 07:34 41.303967 -73.118162 138 10643ft 324kts
14-Nov-22 07:35 41.225417 -73.100469 199 10657ft 286kts
14-Nov-22 07:36 41.150165 -73.132443 207 10658ft 281kts
14-Nov-22 07:37 41.077529 -73.167063 208 10685ft 261kts
14-Nov-22 07:38 41.009422 -73.199740 208 10671ft 258kts
14-Nov-22 07:39 40.941446 -73.232370 207 9157ft 272kts
14-Nov-22 07:40 40.869596 -73.266587 205 7113ft 275kts
14-Nov-22 07:41 40.799684 -73.299750 204 5757ft 249kts
14-Nov-22 07:42 40.769943 -73.354271 277 5739ft 194kts
14-Nov-22 07:43 40.774575 -73.424805 276 5534ft 203kts
14-Nov-22 07:44 40.779451 -73.502066 277 4094ft 208kts
14-Nov-22 07:45 40.781023 -73.575330 250 3174ft 198kts
14-Nov-22 07:46 40.754999 -73.637814 226 2654ft 202kts
14-Nov-22 07:47 40.714320 -73.681543 224 1892ft 172kts
14-Nov-22 07:48 40.679927 -73.719425 225 888ft 139kts
14-Nov-22 07:49 40.653585 -73.748637 225 734ft 138kts
14-Nov-22 07:50 40.606663 -73.722861 138 2949ft 221kts
14-Nov-22 07:51 40.574276 -73.661807 61 2862ft 206kts
14-Nov-22 07:52 40.612835 -73.607420 26 2852ft 208kts
14-Nov-22 07:53 40.662899 -73.568188 26 2849ft 209kts
14-Nov-22 07:54 40.712993 -73.528867 26 2840ft 209kts
14-Nov-22 07:55 40.763082 -73.489884 26 2840ft 209kts
14-Nov-22 07:56 40.813346 -73.451823 13 2820ft 206kts
14-Nov-22 07:57 40.827331 -73.498199 243 2858ft 188kts
14-Nov-22 07:58 40.798816 -73.555719 240 2853ft 188kts
14-Nov-22 07:59 40.769424 -73.613057 239 2851ft 188kts
14-Nov-22 08:00 40.734109 -73.660420 222 2211ft 170kts
14-Nov-22 08:01 40.698445 -73.699052 225 1362ft 165kts
14-Nov-22 08:02 40.674863 -73.735982 251 687ft 115kts
14-Nov-22 08:03 40.650498 -73.763368 215 268ft 119kts
14-Nov-22 08:04 40.630321 -73.779329 255 11ft 8kts
14-Nov-22 08:05 40.632799 -73.779932 16 11ft 0kts
14-Nov-22 08:06 40.632799 -73.779932 16 11ft 0kts
14-Nov-22 08:07 40.633190 -73.780155 303 11ft 7kts
14-Nov-22 08:08 40.635559 -73.783640 300 12ft 20kts
14-Nov-22 08:09 40.639076 -73.791369 301 13ft 28kts
14-Nov-22 08:10 40.643869 -73.800778 300 14ft 33kts
14-Nov-22 08:11 40.648743 -73.811555 300 14ft 21kts
14-Nov-22 08:12 40.650240 -73.810125 129 15ft 8kts
14-Nov-22 08:13 40.649433 -73.809668 288 15ft 0kts
14-Nov-22 08:14 40.649433 -73.809667 288 15ft 0kts
14-Nov-22 08:15 40.649433 -73.809667 288 15ft 0kts
14-Nov-22 08:16 40.649433 -73.809667 288 15ft 0kts
14-Nov-22 08:17 40.649433 -73.809667 288 15ft 0kts
14-Nov-22 08:18 40.649433 -73.809667 288 15ft 0kts

Navigation Log

Ident Type
Flight plan parsing failed, navigation log unavailable